Time;durP1;ratioP1;P1;durP2;ratioP2;P2;SDS_P1;SDS_P2;PMS_P1;PMS_P2;Temp;Humidity;BMP_temperature;BMP_pressure;BME280_temperature;BME280_humidity;BME280_pressure;Samples;Min_cycle;Max_cycle;Signal;HPM_P1;HPM_P2
2022/09/08 00:01:45;;;;;;;;;;;;;;;28.62;36.06;98940.00;4475242;32;35149;-80
2022/09/08 00:04:13;;;;;;;;;;;;;;;28.65;35.97;98938.97;4466812;32;34986;-82
2022/09/08 00:06:40;;;;;;;;;;;;;;;28.50;36.15;98941.66;4467682;32;34203;-81
2022/09/08 00:09:07;;;;;;;;;;;;;;;28.47;36.20;98936.53;4467549;32;34031;-92
2022/09/08 00:11:34;;;;;;;;;;;;;;;28.32;36.45;98929.47;4467584;32;34284;-81
2022/09/08 00:14:03;;;;;;;;;;;;;;;28.36;36.37;98929.19;4458869;32;34192;-80
2022/09/08 00:16:30;;;;;;;;;;;;;;;28.44;36.26;98931.38;4466897;32;33621;-81
2022/09/08 00:18:58;;;;;;;;;;;;;;;28.35;36.71;98927.47;4453214;32;33701;-80
2022/09/08 00:21:26;;;;;;;;;;;;;;;28.00;37.30;98920.88;4467483;32;34097;-81
2022/09/08 00:23:53;;;;;;;;;;;;;;;28.32;36.82;98916.16;4467073;32;35242;-81
2022/09/08 00:26:21;;;;;;;;;;;;;;;28.24;36.80;98915.78;4480857;32;33559;-81
2022/09/08 00:28:48;;;;;;;;;;;;;;;27.84;37.57;98916.50;4467371;32;34215;-82
2022/09/08 00:31:16;;;;;;;;;;;;;;;27.87;37.62;98915.44;4479219;32;34406;-79
2022/09/08 00:33:44;;;;;;;;;;;;;;;28.01;37.50;98907.44;4481607;32;34921;-80
2022/09/08 00:36:14;;;;;;;;;;;;;;;27.50;38.47;98907.00;4455440;32;33801;-81
2022/09/08 00:38:42;;;;;;;;;;;;;;;27.67;38.12;98907.78;4471240;32;34253;-81
2022/09/08 00:41:12;;;;;;;;;;;;;;;27.88;37.69;98901.16;4468184;32;35204;-81
2022/09/08 00:43:46;;;;;;;;;;;;;;;28.07;37.37;98900.84;4478634;32;34868;-80
2022/09/08 00:46:26;;;;;;;;;;;;;;;28.19;37.12;98893.91;4465218;32;34419;-81
2022/09/08 00:48:55;;;;;;;;;;;;;;;28.20;37.05;98888.47;4474783;32;35060;-80
2022/09/08 00:51:23;;;;;;;;;;;;;;;28.08;37.31;98889.25;4467993;32;34431;-83
2022/09/08 00:53:50;;;;;;;;;;;;;;;28.03;37.38;98886.84;4466087;32;34554;-80
2022/09/08 00:56:18;;;;;;;;;;;;;;;27.88;37.28;98894.03;4480148;32;34379;-89
2022/09/08 00:58:45;;;;;;;;;;;;;;;27.96;37.36;98888.22;4462567;32;34955;-83
2022/09/08 01:01:12;;;;;;;;;;;;;;;27.96;37.24;98890.00;4480781;32;33991;-81
2022/09/08 01:03:41;;;;;;;;;;;;;;;28.02;37.17;98893.16;4476876;32;34321;-81
2022/09/08 01:12:43;;;;;;;;;;;;;;;28.14;36.92;98881.69;4462649;32;32941;-92
2022/09/08 01:14:52;;;;;;;;;;;;;;;28.18;36.71;98892.19;4462653;32;35081;-81
2022/09/08 01:17:21;;;;;;;;;;;;;;;28.16;36.72;98889.63;4477712;32;34403;-85
2022/09/08 01:19:48;;;;;;;;;;;;;;;28.20;36.61;98882.28;4468739;32;34943;-81
2022/09/08 01:22:35;;;;;;;;;;;;;;;28.09;36.68;98889.16;4453895;32;34840;-82
2022/09/08 01:25:22;;;;;;;;;;;;;;;27.91;37.11;98887.63;4467913;32;34342;-81
2022/09/08 01:27:49;;;;;;;;;;;;;;;27.99;37.05;98887.16;4476920;32;34251;-81
2022/09/08 01:30:17;;;;;;;;;;;;;;;28.05;36.95;98879.63;4466018;32;34298;-89
2022/09/08 01:32:44;;;;;;;;;;;;;;;27.97;37.19;98881.09;4475204;32;34462;-80
2022/09/08 01:35:25;;;;;;;;;;;;;;;27.98;37.14;98875.66;4466786;32;33877;-81
2022/09/08 01:37:54;;;;;;;;;;;;;;;27.56;37.96;98881.81;4474097;32;32818;-84
2022/09/08 01:40:21;;;;;;;;;;;;;;;27.22;38.81;98877.69;4468727;32;33563;-82
2022/09/08 01:42:48;;;;;;;;;;;;;;;27.67;38.03;98878.50;4479550;32;33899;-82
2022/09/08 01:45:16;;;;;;;;;;;;;;;27.79;37.79;98881.28;4478822;32;34993;-82
2022/09/08 01:47:43;;;;;;;;;;;;;;;27.91;37.65;98884.97;4470487;32;33388;-80
2022/09/08 01:50:11;;;;;;;;;;;;;;;27.92;37.65;98883.16;4467928;32;34451;-80
2022/09/08 01:52:38;;;;;;;;;;;;;;;27.90;37.78;98877.94;4475160;32;34275;-81
2022/09/08 01:55:05;;;;;;;;;;;;;;;27.95;37.79;98881.16;4469899;32;34125;-81
2022/09/08 01:57:33;;;;;;;;;;;;;;;27.80;38.07;98876.78;4464985;32;33306;-94
2022/09/08 02:00:00;;;;;;;;;;;;;;;27.69;38.32;98885.41;4473745;32;34881;-81
2022/09/08 02:02:30;;;;;;;;;;;;;;;27.82;38.33;98886.41;4476591;32;34108;-81
2022/09/08 02:04:57;;;;;;;;;;;;;;;27.95;38.02;98886.50;4472368;32;35286;-81
2022/09/08 02:07:25;;;;;;;;;;;;;;;27.91;38.08;98876.97;4458566;32;34466;-91
2022/09/08 02:09:53;;;;;;;;;;;;;;;27.55;38.86;98878.31;4473883;32;34159;-82
2022/09/08 02:12:20;;;;;;;;;;;;;;;27.56;39.23;98880.00;4473142;32;34057;-81
2022/09/08 02:14:47;;;;;;;;;;;;;;;27.74;39.02;98871.84;4471765;32;33901;-81
2022/09/08 02:17:15;;;;;;;;;;;;;;;27.87;38.64;98880.78;4473052;32;33391;-81
2022/09/08 02:19:42;;;;;;;;;;;;;;;27.74;38.65;98874.50;4473148;32;34134;-81
2022/09/08 02:22:09;;;;;;;;;;;;;;;27.79;38.58;98875.94;4472742;32;34410;-95
2022/09/08 02:24:37;;;;;;;;;;;;;;;27.74;38.54;98883.38;4472155;32;35099;-94
2022/09/08 02:27:04;;;;;;;;;;;;;;;27.58;38.91;98880.78;4472349;32;33598;-81
2022/09/08 02:29:31;;;;;;;;;;;;;;;27.65;38.85;98879.47;4472158;32;34000;-81
2022/09/08 02:31:59;;;;;;;;;;;;;;;27.50;39.06;98885.69;4471866;32;34263;-94
2022/09/08 02:34:26;;;;;;;;;;;;;;;27.33;39.46;98881.41;4460883;32;34269;-94
2022/09/08 02:36:53;;;;;;;;;;;;;;;27.17;39.81;98880.63;4472137;32;34170;-95
2022/09/08 02:39:20;;;;;;;;;;;;;;;27.39;39.50;98888.19;4483769;32;35031;-81
2022/09/08 02:41:48;;;;;;;;;;;;;;;27.38;39.48;98887.28;4480920;32;34181;-81
2022/09/08 02:44:15;;;;;;;;;;;;;;;27.55;39.17;98886.28;4472667;32;34936;-90
2022/09/08 02:46:42;;;;;;;;;;;;;;;27.61;39.00;98879.72;4458592;32;34172;-95
2022/09/08 02:49:10;;;;;;;;;;;;;;;27.43;39.40;98881.72;4472422;32;35108;-81
2022/09/08 02:51:37;;;;;;;;;;;;;;;27.46;39.33;98876.19;4473182;32;34013;-82
2022/09/08 02:54:04;;;;;;;;;;;;;;;27.58;39.18;98883.44;4469053;32;32740;-82
2022/09/08 02:56:31;;;;;;;;;;;;;;;27.25;39.65;98874.84;4472951;32;34852;-81
2022/09/08 02:58:59;;;;;;;;;;;;;;;27.45;39.41;98881.63;4479202;32;34105;-82
2022/09/08 03:01:28;;;;;;;;;;;;;;;27.30;39.77;98884.25;4482035;32;34363;-80
2022/09/08 03:03:55;;;;;;;;;;;;;;;27.55;39.21;98878.31;4481130;32;34970;-90
2022/09/08 03:06:22;;;;;;;;;;;;;;;27.60;38.93;98870.88;4471433;32;33294;-81
2022/09/08 03:08:50;;;;;;;;;;;;;;;27.58;38.87;98867.47;4473316;32;34282;-81
2022/09/08 03:11:17;;;;;;;;;;;;;;;27.58;38.87;98872.78;4469425;32;34111;-96
2022/09/08 03:13:44;;;;;;;;;;;;;;;27.67;38.69;98871.34;4471141;32;34359;-81
2022/09/08 03:16:12;;;;;;;;;;;;;;;27.55;38.79;98872.97;4476517;32;33572;-81
2022/09/08 03:18:39;;;;;;;;;;;;;;;27.52;38.84;98864.31;4468035;32;33736;-96
2022/09/08 03:21:08;;;;;;;;;;;;;;;27.63;38.57;98860.03;4481020;32;33917;-81
2022/09/08 03:23:35;;;;;;;;;;;;;;;27.65;38.57;98857.25;4475249;32;34275;-81
2022/09/08 03:26:08;;;;;;;;;;;;;;;27.54;38.74;98855.28;4468549;32;34302;-81
2022/09/08 03:28:35;;;;;;;;;;;;;;;27.55;38.83;98862.31;4456280;32;34337;-81
2022/09/08 03:31:07;;;;;;;;;;;;;;;27.65;38.54;98855.47;4473644;32;34200;-82
2022/09/08 03:33:35;;;;;;;;;;;;;;;27.39;38.90;98857.09;4478456;32;34104;-90
2022/09/08 03:36:03;;;;;;;;;;;;;;;27.44;38.85;98858.63;4482752;31;33315;-93
2022/09/08 03:38:30;;;;;;;;;;;;;;;27.45;38.76;98853.19;4467916;32;34207;-82
2022/09/08 03:40:57;;;;;;;;;;;;;;;27.38;38.86;98859.81;4472904;32;34390;-95
2022/09/08 03:43:24;;;;;;;;;;;;;;;27.44;38.67;98864.78;4469765;32;34368;-94
2022/09/08 03:45:52;;;;;;;;;;;;;;;27.39;38.70;98867.75;4454951;32;33720;-82
2022/09/08 03:48:19;;;;;;;;;;;;;;;27.40;38.69;98873.91;4467915;32;34156;-81
2022/09/08 03:50:46;;;;;;;;;;;;;;;27.44;38.47;98869.25;4477404;32;35062;-82
2022/09/08 03:53:14;;;;;;;;;;;;;;;27.36;38.67;98873.25;4456653;32;34102;-82
2022/09/08 03:55:41;;;;;;;;;;;;;;;27.36;38.48;98873.25;4483475;32;33700;-82
2022/09/08 03:58:09;;;;;;;;;;;;;;;27.15;38.91;98875.38;4481872;32;34264;-96
2022/09/08 04:00:38;;;;;;;;;;;;;;;26.91;39.63;98877.66;4477358;31;34125;-96
2022/09/08 04:03:06;;;;;;;;;;;;;;;27.02;39.51;98879.69;4472245;32;33348;-82
2022/09/08 04:05:33;;;;;;;;;;;;;;;27.11;39.19;98878.31;4477777;32;33880;-81
2022/09/08 04:08:00;;;;;;;;;;;;;;;27.24;38.78;98879.31;4469580;32;34790;-82
2022/09/08 04:10:28;;;;;;;;;;;;;;;27.32;38.58;98885.03;4476275;32;34216;-81
2022/09/08 04:12:55;;;;;;;;;;;;;;;27.15;39.03;98890.50;4475945;32;33425;-82
2022/09/08 04:15:22;;;;;;;;;;;;;;;26.88;39.68;98893.81;4470164;32;32666;-82
2022/09/08 04:17:50;;;;;;;;;;;;;;;27.00;39.36;98892.22;4472922;32;34922;-81
2022/09/08 04:20:19;;;;;;;;;;;;;;;27.12;38.98;98891.56;4478402;31;34889;-81
2022/09/08 04:22:46;;;;;;;;;;;;;;;27.16;38.82;98889.53;4482718;32;34654;-87
2022/09/08 04:25:14;;;;;;;;;;;;;;;27.30;38.42;98888.72;4471429;32;34280;-82
2022/09/08 04:27:41;;;;;;;;;;;;;;;27.29;38.47;98882.53;4481550;32;34229;-82
2022/09/08 04:30:08;;;;;;;;;;;;;;;27.23;38.53;98882.06;4476364;32;34301;-93
2022/09/08 04:32:38;;;;;;;;;;;;;;;27.20;38.55;98877.78;4477432;32;34919;-81
2022/09/08 04:35:05;;;;;;;;;;;;;;;27.11;38.76;98879.16;4468359;32;33218;-82
2022/09/08 04:37:32;;;;;;;;;;;;;;;27.20;38.64;98871.56;4468057;32;34226;-81
2022/09/08 04:40:01;;;;;;;;;;;;;;;27.07;38.96;98882.09;4479150;31;34515;-94
2022/09/08 04:42:28;;;;;;;;;;;;;;;27.22;38.75;98875.88;4483202;32;34222;-84
2022/09/08 04:44:55;;;;;;;;;;;;;;;27.27;38.77;98879.09;4483656;31;33276;-96
2022/09/08 04:47:22;;;;;;;;;;;;;;;27.08;39.15;98883.78;4471813;32;34221;-91
2022/09/08 04:49:50;;;;;;;;;;;;;;;27.26;38.96;98889.84;4469630;32;34318;-89
2022/09/08 04:52:17;;;;;;;;;;;;;;;27.70;38.12;98886.31;4469479;32;33972;-95
2022/09/08 04:54:44;;;;;;;;;;;;;;;27.83;37.53;98881.94;4468166;32;34180;-80
2022/09/08 04:57:12;;;;;;;;;;;;;;;28.02;37.71;98889.63;4481630;32;35017;-88
2022/09/08 04:59:39;;;;;;;;;;;;;;;27.26;38.58;98881.88;4471949;32;34264;-82
2022/09/08 05:02:07;;;;;;;;;;;;;;;27.37;38.80;98885.59;4482759;32;33792;-81
2022/09/08 05:04:34;;;;;;;;;;;;;;;26.43;40.95;98883.97;4483616;32;32843;-81
2022/09/08 05:07:01;;;;;;;;;;;;;;;27.37;39.17;98887.41;4483237;32;34019;-81
2022/09/08 05:09:28;;;;;;;;;;;;;;;28.12;38.04;98888.97;4483166;32;35195;-90
2022/09/08 05:11:55;;;;;;;;;;;;;;;28.37;37.15;98895.41;4481051;32;34890;-82
2022/09/08 05:14:24;;;;;;;;;;;;;;;27.82;38.27;98890.91;4467758;32;33886;-81
2022/09/08 05:16:51;;;;;;;;;;;;;;;28.11;37.33;98889.91;4467332;32;34858;-92
2022/09/08 05:19:18;;;;;;;;;;;;;;;27.73;37.94;98894.06;4467241;32;34376;-82
2022/09/08 05:21:45;;;;;;;;;;;;;;;26.67;40.13;98900.38;4467839;32;34489;-94
2022/09/08 05:24:13;;;;;;;;;;;;;;;26.30;41.36;98897.09;4467295;32;33323;-81
2022/09/08 05:26:40;;;;;;;;;;;;;;;26.97;40.12;98896.84;4467115;32;33844;-82
2022/09/08 05:29:07;;;;;;;;;;;;;;;26.57;40.63;98889.41;4466671;32;35203;-79
2022/09/08 05:31:35;;;;;;;;;;;;;;;25.97;41.83;98894.50;4466307;32;32698;-81
2022/09/08 05:34:02;;;;;;;;;;;;;;;26.18;41.50;98890.69;4467249;32;34094;-89
2022/09/08 05:36:33;;;;;;;;;;;;;;;26.52;41.01;98886.16;4468188;32;34970;-81
2022/09/08 05:39:04;;;;;;;;;;;;;;;26.65;40.61;98897.78;4468849;32;35490;-81
2022/09/08 05:41:31;;;;;;;;;;;;;;;27.13;39.78;98893.25;4483205;32;34230;-82
2022/09/08 05:43:59;;;;;;;;;;;;;;;26.58;40.87;98899.09;4455843;32;33430;-81
2022/09/08 05:46:29;;;;;;;;;;;;;;;27.10;40.00;98892.53;4467338;32;34160;-81
2022/09/08 05:49:01;;;;;;;;;;;;;;;26.59;41.20;98892.81;4467240;32;35399;-82
2022/09/08 05:51:32;;;;;;;;;;;;;;;25.19;44.42;98891.53;4467072;32;34080;-81
2022/09/08 05:53:59;;;;;;;;;;;;;;;26.45;42.00;98887.41;4467525;32;33496;-82
2022/09/08 05:56:26;;;;;;;;;;;;;;;24.83;45.34;98893.34;4466818;32;34211;-81
2022/09/08 05:58:55;;;;;;;;;;;;;;;25.55;43.74;98887.87;4466855;32;34241;-81
2022/09/08 06:01:29;;;;;;;;;;;;;;;26.24;42.56;98884.16;4467084;32;34455;-82
2022/09/08 06:03:57;;;;;;;;;;;;;;;25.54;43.94;98898.59;4467029;32;33253;-81
2022/09/08 06:06:25;;;;;;;;;;;;;;;25.63;43.23;98890.97;4466894;32;34936;-81
2022/09/08 06:08:52;;;;;;;;;;;;;;;25.87;43.32;98885.31;4452907;32;34084;-81
2022/09/08 06:11:20;;;;;;;;;;;;;;;25.27;43.71;98882.28;4466735;32;34943;-81
2022/09/08 06:13:48;;;;;;;;;;;;;;;25.33;44.08;98885.47;4466874;32;33943;-81
2022/09/08 06:16:15;;;;;;;;;;;;;;;25.69;43.22;98874.72;4466881;32;34288;-81
2022/09/08 06:18:43;;;;;;;;;;;;;;;25.05;44.21;98887.81;4466829;32;35345;-81
2022/09/08 06:21:14;;;;;;;;;;;;;;;25.44;44.23;98891.09;4452683;32;34811;-82
2022/09/08 06:23:41;;;;;;;;;;;;;;;25.75;43.42;98883.28;4466847;32;34049;-82
2022/09/08 06:26:28;;;;;;;;;;;;;;;24.96;45.04;98890.00;4466442;32;34925;-81
2022/09/08 06:28:56;;;;;;;;;;;;;;;24.27;46.06;98882.72;4435185;32;33895;-81
2022/09/08 06:31:27;;;;;;;;;;;;;;;24.86;45.33;98870.19;4466598;32;34194;-81
2022/09/08 06:33:54;;;;;;;;;;;;;;;25.88;43.38;98860.50;4452823;32;33454;-81
2022/09/08 06:36:22;;;;;;;;;;;;;;;26.29;42.48;98865.28;4452469;32;33872;-81
2022/09/08 06:38:53;;;;;;;;;;;;;;;26.43;42.03;98862.72;4452345;32;34343;-81
2022/09/08 06:41:28;;;;;;;;;;;;;;;25.20;44.64;98866.69;4452311;32;34988;-81
2022/09/08 06:44:01;;;;;;;;;;;;;;;25.81;42.90;98852.00;4452805;32;33280;-81
2022/09/08 06:46:29;;;;;;;;;;;;;;;26.80;41.58;98857.97;4468724;32;34644;-81
2022/09/08 06:48:57;;;;;;;;;;;;;;;25.85;43.06;98860.66;4454535;32;35402;-81
2022/09/08 06:51:43;;;;;;;;;;;;;;;26.72;41.47;98855.75;4454321;32;34188;-81
2022/09/08 06:54:29;;;;;;;;;;;;;;;26.15;42.63;98850.97;4468630;32;33470;-81
2022/09/08 06:57:05;;;;;;;;;;;;;;;26.05;43.00;98849.78;4468379;32;33264;-81
2022/09/08 06:59:55;;;;;;;;;;;;;;;25.78;43.07;98843.31;4468622;32;35368;-81
2022/09/08 07:02:26;;;;;;;;;;;;;;;26.71;41.94;98831.88;4468782;32;34144;-81
2022/09/08 07:05:13;;;;;;;;;;;;;;;25.50;44.49;98831.53;4454446;32;33395;-82
2022/09/08 07:07:43;;;;;;;;;;;;;;;26.28;42.40;98835.19;4468562;32;34168;-81
2022/09/08 07:10:21;;;;;;;;;;;;;;;25.84;43.24;98840.34;4454126;32;34217;-81
2022/09/08 07:12:57;;;;;;;;;;;;;;;25.76;43.69;98838.09;4454528;32;34691;-81
2022/09/08 07:15:30;;;;;;;;;;;;;;;25.85;44.10;98834.94;4454600;32;33065;-81
2022/09/08 07:18:13;;;;;;;;;;;;;;;26.08;42.97;98828.34;4468694;32;34327;-81
2022/09/08 07:20:40;;;;;;;;;;;;;;;25.69;43.73;98834.91;4468580;32;35264;-81
2022/09/08 07:23:18;;;;;;;;;;;;;;;26.29;43.11;98830.72;4468458;32;34887;-81
2022/09/08 07:25:45;;;;;;;;;;;;;;;26.89;42.20;98829.00;4454411;32;32944;-81
2022/09/08 07:28:15;;;;;;;;;;;;;;;26.39;43.20;98831.94;4468580;32;33882;-81
2022/09/08 07:30:42;;;;;;;;;;;;;;;26.54;42.78;98838.22;4454636;32;34381;-82
2022/09/08 07:33:10;;;;;;;;;;;;;;;27.05;41.56;98839.62;4454515;32;34013;-81
2022/09/08 07:36:00;;;;;;;;;;;;;;;27.35;41.29;98838.72;4468234;32;33442;-81
2022/09/08 07:38:31;;;;;;;;;;;;;;;27.40;41.10;98839.31;4468150;32;34203;-81
2022/09/08 07:40:58;;;;;;;;;;;;;;;26.50;43.29;98845.50;4454048;32;33822;-81
2022/09/08 07:43:26;;;;;;;;;;;;;;;27.20;41.61;98843.19;4468652;32;33902;-81
2022/09/08 07:45:56;;;;;;;;;;;;;;;26.72;43.01;98849.59;4454307;32;33456;-81
2022/09/08 07:48:38;;;;;;;;;;;;;;;26.39;43.06;98851.41;4468132;32;34832;-81
2022/09/08 07:51:16;;;;;;;;;;;;;;;26.49;43.55;98854.44;4468070;32;34138;-81
2022/09/08 07:53:49;;;;;;;;;;;;;;;26.47;43.49;98850.97;4453673;32;35174;-81
2022/09/08 07:56:17;;;;;;;;;;;;;;;27.14;42.84;98857.72;4453858;32;33422;-82
2022/09/08 07:58:51;;;;;;;;;;;;;;;27.72;40.95;98858.59;4468485;32;34233;-81
2022/09/08 08:01:22;;;;;;;;;;;;;;;27.67;41.26;98859.84;4468168;32;35271;-81
2022/09/08 08:04:07;;;;;;;;;;;;;;;27.40;41.66;98877.44;4454516;32;34367;-81
2022/09/08 08:06:37;;;;;;;;;;;;;;;27.94;40.91;98871.47;4468078;32;34288;-82
2022/09/08 08:09:11;;;;;;;;;;;;;;;26.93;43.12;98877.56;4467882;32;34338;-82
2022/09/08 08:11:54;;;;;;;;;;;;;;;27.47;41.99;98880.59;4467962;32;34224;-81
2022/09/08 08:14:30;;;;;;;;;;;;;;;27.83;41.30;98877.47;4468197;32;34205;-81
2022/09/08 08:17:04;;;;;;;;;;;;;;;28.37;40.16;98874.06;4468035;32;34059;-81
2022/09/08 08:19:31;;;;;;;;;;;;;;;27.72;41.46;98884.38;4468013;32;34966;-82
2022/09/08 08:21:59;;;;;;;;;;;;;;;28.28;40.46;98870.16;4467789;32;34256;-81
2022/09/08 08:24:26;;;;;;;;;;;;;;;28.25;40.96;98877.50;4453962;32;34127;-82
2022/09/08 08:27:22;;;;;;;;;;;;;;;28.62;39.86;98876.00;4468021;32;34238;-82
2022/09/08 08:29:57;;;;;;;;;;;;;;;28.92;38.80;98882.94;4468191;32;34425;-82
2022/09/08 08:32:27;;;;;;;;;;;;;;;28.29;40.55;98895.00;4453798;32;35160;-81
2022/09/08 08:35:29;;;;;;;;;;;;;;;28.34;39.85;98890.25;4455778;32;34975;-82
2022/09/08 08:37:57;;;;;;;;;;;;;;;28.33;40.57;98889.38;4467474;32;34057;-81
2022/09/08 08:40:31;;;;;;;;;;;;;;;28.82;40.00;98894.19;4453852;32;34087;-81
2022/09/08 08:43:18;;;;;;;;;;;;;;;28.57;39.97;98884.31;4453633;32;34284;-82
2022/09/08 08:46:04;;;;;;;;;;;;;;;27.99;41.09;98885.34;4467697;32;34449;-82
2022/09/08 08:48:32;;;;;;;;;;;;;;;27.76;42.05;98885.94;4467822;32;34031;-81
2022/09/08 08:51:11;;;;;;;;;;;;;;;28.02;41.44;98882.50;4467660;32;33815;-81
2022/09/08 08:53:47;;;;;;;;;;;;;;;28.12;41.74;98883.63;4467827;32;34311;-81
2022/09/08 08:56:30;;;;;;;;;;;;;;;28.03;41.79;98883.34;4467650;32;34353;-81
2022/09/08 08:59:15;;;;;;;;;;;;;;;28.34;42.05;98875.13;4453631;32;33235;-82
2022/09/08 09:02:01;;;;;;;;;;;;;;;28.05;41.89;98876.97;4467743;32;34098;-82
2022/09/08 09:04:44;;;;;;;;;;;;;;;28.34;41.91;98869.78;4468210;32;34555;-82
2022/09/08 09:07:11;;;;;;;;;;;;;;;27.37;43.56;98868.78;4466411;32;34270;-82
2022/09/08 09:09:49;;;;;;;;;;;;;;;28.33;42.23;98853.88;4467801;32;34179;-81
2022/09/08 09:12:35;;;;;;;;;;;;;;;28.49;42.51;98851.06;4453687;32;34146;-82
2022/09/08 09:15:06;;;;;;;;;;;;;;;28.68;41.31;98846.25;4467685;32;34198;-82
2022/09/08 09:18:01;;;;;;;;;;;;;;;28.75;40.52;98844.00;4455765;32;33947;-82
2022/09/08 09:20:38;;;;;;;;;;;;;;;28.68;40.82;98842.72;4453655;32;33552;-81
2022/09/08 09:23:11;;;;;;;;;;;;;;;28.39;41.35;98840.19;4467527;32;34277;-81
2022/09/08 09:26:02;;;;;;;;;;;;;;;28.45;41.24;98837.13;4467767;32;34530;-82
2022/09/08 09:28:44;;;;;;;;;;;;;;;29.02;40.43;98834.19;4459407;32;34822;-81
2022/09/08 09:31:17;;;;;;;;;;;;;;;29.82;39.46;98825.97;4467498;32;33470;-82
2022/09/08 09:34:00;;;;;;;;;;;;;;;28.85;41.06;98832.63;4452937;32;34906;-82
2022/09/08 09:36:37;;;;;;;;;;;;;;;28.42;41.14;98837.31;4467184;32;35195;-82
2022/09/08 09:39:09;;;;;;;;;;;;;;;28.57;41.49;98819.44;4453399;32;33925;-82
2022/09/08 09:41:36;;;;;;;;;;;;;;;28.64;40.97;98811.87;4453221;32;33681;-82
2022/09/08 09:44:10;;;;;;;;;;;;;;;29.34;40.09;98810.59;4467184;32;35018;-81
2022/09/08 09:46:48;;;;;;;;;;;;;;;29.74;39.49;98810.50;4453254;32;35144;-82
2022/09/08 09:49:28;;;;;;;;;;;;;;;30.64;38.58;98807.50;4453132;32;34227;-82
2022/09/08 09:52:14;;;;;;;;;;;;;;;30.04;38.13;98814.56;4453331;32;33224;-82
2022/09/08 09:54:48;;;;;;;;;;;;;;;29.60;39.42;98809.78;4467116;32;33597;-82
2022/09/08 09:57:31;;;;;;;;;;;;;;;29.99;38.67;98817.56;4453007;32;34507;-82
2022/09/08 10:00:09;;;;;;;;;;;;;;;30.64;38.46;98812.84;4453952;32;34346;-82
2022/09/08 10:02:56;;;;;;;;;;;;;;;30.72;37.29;98802.41;4467163;32;33513;-82
2022/09/08 10:05:30;;;;;;;;;;;;;;;30.12;39.12;98814.00;4466845;32;34685;-82
2022/09/08 10:08:09;;;;;;;;;;;;;;;31.22;37.12;98803.06;4467278;32;34344;-82
2022/09/08 10:10:49;;;;;;;;;;;;;;;31.14;37.71;98811.69;4452970;32;34551;-82
2022/09/08 10:13:22;;;;;;;;;;;;;;;31.33;36.38;98803.13;4467237;32;33463;-82
2022/09/08 10:15:56;;;;;;;;;;;;;;;31.07;37.77;98804.25;4466713;32;34101;-80
2022/09/08 10:18:37;;;;;;;;;;;;;;;30.62;38.76;98809.44;4467330;32;35207;-82
2022/09/08 10:21:10;;;;;;;;;;;;;;;30.35;38.48;98797.16;4454702;32;34152;-82
2022/09/08 10:23:40;;;;;;;;;;;;;;;30.57;38.87;98795.53;4468925;32;33563;-82
2022/09/08 10:26:12;;;;;;;;;;;;;;;31.31;36.90;98786.28;4468949;32;34967;-82
2022/09/08 10:28:58;;;;;;;;;;;;;;;30.84;37.44;98773.87;4454773;32;35367;-82
2022/09/08 10:31:44;;;;;;;;;;;;;;;30.27;39.28;98772.81;4468503;32;34111;-82
2022/09/08 10:34:14;;;;;;;;;;;;;;;30.07;39.69;98768.91;4468601;32;33695;-81
2022/09/08 10:36:44;;;;;;;;;;;;;;;31.20;38.53;98770.19;4468790;32;34907;-82
2022/09/08 10:39:17;;;;;;;;;;;;;;;31.78;36.86;98778.97;4468784;32;34408;-82
2022/09/08 10:42:04;;;;;;;;;;;;;;;31.33;37.51;98768.28;4468710;32;33999;-82
2022/09/08 10:44:44;;;;;;;;;;;;;;;31.20;37.80;98792.44;4469054;32;33475;-82
2022/09/08 10:47:36;;;;;;;;;;;;;;;31.41;37.42;98781.06;4455277;32;34735;-82
2022/09/08 10:50:07;;;;;;;;;;;;;;;31.44;37.24;98786.16;4468688;32;34528;-82
2022/09/08 10:52:53;;;;;;;;;;;;;;;31.55;36.60;98767.41;4468668;32;34953;-82
2022/09/08 10:55:27;;;;;;;;;;;;;;;31.16;37.02;98771.41;4468548;32;33517;-82
2022/09/08 10:58:00;;;;;;;;;;;;;;;31.50;37.17;98769.62;4468427;32;33978;-81
2022/09/08 11:00:30;;;;;;;;;;;;;;;31.76;38.39;98772.03;4454511;32;34370;-82
2022/09/08 11:03:16;;;;;;;;;;;;;;;32.02;34.95;98778.00;4468535;32;34101;-83
2022/09/08 11:05:50;;;;;;;;;;;;;;;31.71;35.94;98769.75;4468644;32;34139;-82
2022/09/08 11:08:37;;;;;;;;;;;;;;;31.06;36.98;98771.25;4454200;32;33989;-82
2022/09/08 11:11:23;;;;;;;;;;;;;;;31.97;35.42;98763.12;4468641;32;34772;-90
2022/09/08 11:14:02;;;;;;;;;;;;;;;32.57;32.90;98765.38;4468806;32;34070;-83
2022/09/08 11:16:48;;;;;;;;;;;;;;;32.31;33.79;98767.53;4454329;32;33381;-82
2022/09/08 11:19:21;;;;;;;;;;;;;;;32.45;32.80;98757.38;4468531;32;34259;-82
2022/09/08 11:22:30;;;;;;;;;;;;;;;32.37;32.64;98769.72;4468368;32;34926;-82
2022/09/08 11:25:06;;;;;;;;;;;;;;;32.59;31.97;98769.62;4444338;32;34437;-82
2022/09/08 11:27:42;;;;;;;;;;;;;;;32.39;32.45;98763.25;4468460;32;34414;-82
2022/09/08 11:30:19;;;;;;;;;;;;;;;32.60;32.20;98767.81;4453469;32;35036;-82
2022/09/08 11:33:01;;;;;;;;;;;;;;;32.57;32.13;98768.91;4454132;32;33759;-81
2022/09/08 11:35:35;;;;;;;;;;;;;;;32.83;31.70;98771.22;4468259;32;33669;-82
2022/09/08 11:38:21;;;;;;;;;;;;;;;32.89;31.39;98766.19;4468321;32;33609;-88
2022/09/08 11:41:07;;;;;;;;;;;;;;;32.67;31.86;98769.84;4468342;32;34852;-82
2022/09/08 11:43:36;;;;;;;;;;;;;;;32.08;32.91;98764.06;4468225;32;35253;-87
2022/09/08 11:46:22;;;;;;;;;;;;;;;32.70;32.16;98761.53;4468235;32;34044;-83
2022/09/08 11:48:49;;;;;;;;;;;;;;;32.83;32.34;98758.63;4468262;32;33350;-82
2022/09/08 11:51:24;;;;;;;;;;;;;;;33.81;32.03;98752.78;4468192;32;34254;-82
2022/09/08 11:54:11;;;;;;;;;;;;;;;33.13;31.35;98762.38;4456319;32;35248;-82
2022/09/08 11:57:13;;;;;;;;;;;;;;;33.36;29.92;98750.47;4468114;32;33753;-82
2022/09/08 11:59:59;;;;;;;;;;;;;;;33.94;30.01;98751.66;4468406;32;33540;-88
2022/09/08 12:02:29;;;;;;;;;;;;;;;34.36;30.07;98750.50;4468264;32;34192;-82
2022/09/08 12:05:15;;;;;;;;;;;;;;;34.21;29.40;98748.34;4468257;32;34342;-82
2022/09/08 12:08:05;;;;;;;;;;;;;;;33.90;29.56;98754.62;4468065;32;34820;-83
2022/09/08 12:11:08;;;;;;;;;;;;;;;32.94;31.54;98758.59;4468089;32;33530;-82
2022/09/08 12:13:41;;;;;;;;;;;;;;;33.81;29.54;98752.78;4403895;32;33920;-82
2022/09/08 12:16:11;;;;;;;;;;;;;;;34.14;29.23;98745.38;4457901;32;35074;-82
2022/09/08 12:18:59;;;;;;;;;;;;;;;34.46;29.44;98730.78;4467941;32;34329;-83
2022/09/08 12:21:45;;;;;;;;;;;;;;;33.58;29.92;98735.19;4468031;32;33447;-82
2022/09/08 12:24:32;;;;;;;;;;;;;;;34.63;29.46;98738.19;4453738;32;34265;-82
2022/09/08 12:27:23;;;;;;;;;;;;;;;34.73;28.47;98728.22;4467679;32;34311;-82
2022/09/08 12:30:05;;;;;;;;;;;;;;;33.89;29.60;98723.34;4454021;32;34937;-82
2022/09/08 12:32:41;;;;;;;;;;;;;;;33.68;30.57;98725.31;4453865;32;33047;-82
2022/09/08 12:35:12;;;;;;;;;;;;;;;33.87;29.93;98719.97;4467910;32;34766;-82
2022/09/08 12:37:43;;;;;;;;;;;;;;;33.95;30.03;98716.59;4453894;32;35269;-83
2022/09/08 12:40:14;;;;;;;;;;;;;;;33.95;29.29;98710.34;4468261;32;34215;-83
2022/09/08 12:42:46;;;;;;;;;;;;;;;34.04;29.44;98721.16;4466831;32;33197;-82
2022/09/08 12:45:28;;;;;;;;;;;;;;;34.37;28.61;98711.81;4453608;32;34997;-89
2022/09/08 12:48:05;;;;;;;;;;;;;;;34.78;28.72;98715.19;4467842;32;34380;-82
2022/09/08 12:50:39;;;;;;;;;;;;;;;34.11;28.94;98703.44;4467867;32;33789;-82
2022/09/08 12:53:10;;;;;;;;;;;;;;;34.21;28.45;98695.41;4467848;32;32995;-84
2022/09/08 12:55:39;;;;;;;;;;;;;;;34.01;29.37;98696.38;4467710;32;33802;-82
2022/09/08 12:58:08;;;;;;;;;;;;;;;34.24;29.23;98695.09;4453699;32;34285;-83
2022/09/08 13:00:37;;;;;;;;;;;;;;;34.33;29.33;98688.88;4453786;32;35003;-90
2022/09/08 13:03:08;;;;;;;;;;;;;;;34.59;27.39;98683.78;4453657;32;33287;-82
2022/09/08 13:05:42;;;;;;;;;;;;;;;34.39;28.41;98692.81;4453743;32;33968;-81
2022/09/08 13:08:09;;;;;;;;;;;;;;;34.29;28.72;98689.31;4467924;32;34443;-82
2022/09/08 13:10:39;;;;;;;;;;;;;;;34.48;28.27;98691.13;4467420;32;35125;-83
2022/09/08 13:13:10;;;;;;;;;;;;;;;34.70;27.83;98674.69;4453258;32;33638;-85
2022/09/08 13:15:46;;;;;;;;;;;;;;;34.98;27.45;98677.44;4466986;32;34018;-88
2022/09/08 13:18:33;;;;;;;;;;;;;;;35.15;27.25;98673.97;4478183;32;34104;-83
2022/09/08 13:21:10;;;;;;;;;;;;;;;34.85;27.62;98680.44;4475281;32;34573;-88
2022/09/08 13:23:47;;;;;;;;;;;;;;;34.31;28.06;98672.00;4483225;32;33442;-82